sensor_id;sensor_type;location;lat;lon;timestamp;P1;durP1;ratioP1;P2;durP2;ratioP2
23402;SDS011;11874;48.228;11.684;2023-09-12T06:43:06;11.43;;;8.45;;
23402;SDS011;11874;48.228;11.684;2023-09-12T06:45:34;10.55;;;8.27;;
23402;SDS011;11874;48.228;11.684;2023-09-12T06:48:04;10.77;;;8.60;;
23402;SDS011;11874;48.228;11.684;2023-09-12T06:50:33;10.52;;;8.82;;
23402;SDS011;11874;48.228;11.684;2023-09-12T06:53:01;14.77;;;9.23;;
23402;SDS011;11874;48.228;11.684;2023-09-12T06:55:33;14.60;;;9.52;;
23402;SDS011;11874;48.228;11.684;2023-09-12T06:58:01;13.23;;;9.13;;
23402;SDS011;11874;48.228;11.684;2023-09-12T07:00:32;11.30;;;9.20;;
23402;SDS011;11874;48.228;11.684;2023-09-12T07:03:00;12.60;;;9.50;;
23402;SDS011;11874;48.228;11.684;2023-09-12T07:05:28;11.05;;;9.23;;
23402;SDS011;11874;48.228;11.684;2023-09-12T07:07:56;10.43;;;8.93;;
23402;SDS011;11874;48.228;11.684;2023-09-12T07:10:24;12.73;;;9.13;;
23402;SDS011;11874;48.228;11.684;2023-09-12T07:12:53;11.32;;;9.30;;
23402;SDS011;11874;48.228;11.684;2023-09-12T07:15:22;14.82;;;9.48;;
23402;SDS011;11874;48.228;11.684;2023-09-12T07:17:52;11.80;;;8.77;;
23402;SDS011;11874;48.228;11.684;2023-09-12T07:20:23;12.02;;;9.40;;
23402;SDS011;11874;48.228;11.684;2023-09-12T07:22:51;11.32;;;9.10;;
23402;SDS011;11874;48.228;11.684;2023-09-12T07:25:19;12.90;;;8.55;;
23402;SDS011;11874;48.228;11.684;2023-09-12T07:27:50;11.88;;;9.40;;
23402;SDS011;11874;48.228;11.684;2023-09-12T07:30:18;13.10;;;9.52;;
23402;SDS011;11874;48.228;11.684;2023-09-12T07:32:46;12.30;;;9.10;;
23402;SDS011;11874;48.228;11.684;2023-09-12T07:35:16;11.20;;;8.60;;
23402;SDS011;11874;48.228;11.684;2023-09-12T07:37:44;13.05;;;9.02;;
23402;SDS011;11874;48.228;11.684;2023-09-12T07:40:12;10.43;;;8.57;;
23402;SDS011;11874;48.228;11.684;2023-09-12T07:42:41;12.20;;;8.77;;
23402;SDS011;11874;48.228;11.684;2023-09-12T07:45:09;11.85;;;9.43;;
23402;SDS011;11874;48.228;11.684;2023-09-12T07:47:40;12.32;;;8.85;;
23402;SDS011;11874;48.228;11.684;2023-09-12T07:50:08;14.05;;;9.20;;
23402;SDS011;11874;48.228;11.684;2023-09-12T07:52:39;11.25;;;9.20;;
23402;SDS011;11874;48.228;11.684;2023-09-12T07:55:08;13.57;;;8.73;;
23402;SDS011;11874;48.228;11.684;2023-09-12T07:57:37;15.35;;;10.10;;
23402;SDS011;11874;48.228;11.684;2023-09-12T08:00:06;12.95;;;8.45;;
23402;SDS011;11874;48.228;11.684;2023-09-12T08:02:38;13.73;;;9.65;;
23402;SDS011;11874;48.228;11.684;2023-09-12T08:05:07;12.63;;;8.63;;
23402;SDS011;11874;48.228;11.684;2023-09-12T08:07:36;11.75;;;8.25;;
23402;SDS011;11874;48.228;11.684;2023-09-12T08:10:06;13.95;;;8.90;;
23402;SDS011;11874;48.228;11.684;2023-09-12T08:12:36;12.05;;;8.93;;
23402;SDS011;11874;48.228;11.684;2023-09-12T08:15:07;9.73;;;8.02;;
23402;SDS011;11874;48.228;11.684;2023-09-12T08:17:36;11.30;;;8.55;;
23402;SDS011;11874;48.228;11.684;2023-09-12T08:20:07;12.18;;;7.75;;
23402;SDS011;11874;48.228;11.684;2023-09-12T08:22:36;15.85;;;9.85;;
23402;SDS011;11874;48.228;11.684;2023-09-12T08:25:06;17.15;;;8.50;;
23402;SDS011;11874;48.228;11.684;2023-09-12T08:27:34;14.18;;;8.88;;
23402;SDS011;11874;48.228;11.684;2023-09-12T08:30:03;13.40;;;8.73;;
23402;SDS011;11874;48.228;11.684;2023-09-12T08:32:32;10.60;;;8.70;;
23402;SDS011;11874;48.228;11.684;2023-09-12T08:35:00;13.48;;;8.40;;
23402;SDS011;11874;48.228;11.684;2023-09-12T08:37:29;13.18;;;9.02;;
23402;SDS011;11874;48.228;11.684;2023-09-12T08:39:58;11.90;;;8.82;;
23402;SDS011;11874;48.228;11.684;2023-09-12T08:42:28;10.13;;;7.50;;
23402;SDS011;11874;48.228;11.684;2023-09-12T08:44:58;14.57;;;8.93;;
23402;SDS011;11874;48.228;11.684;2023-09-12T08:47:26;13.23;;;8.90;;
23402;SDS011;11874;48.228;11.684;2023-09-12T08:49:55;12.18;;;7.95;;
23402;SDS011;11874;48.228;11.684;2023-09-12T08:52:24;11.40;;;8.80;;
23402;SDS011;11874;48.228;11.684;2023-09-12T08:54:52;12.63;;;8.57;;
23402;SDS011;11874;48.228;11.684;2023-09-12T08:57:20;13.30;;;9.75;;
23402;SDS011;11874;48.228;11.684;2023-09-12T08:59:50;12.60;;;8.63;;
23402;SDS011;11874;48.228;11.684;2023-09-12T09:02:20;10.65;;;8.05;;
23402;SDS011;11874;48.228;11.684;2023-09-12T09:04:48;12.38;;;8.65;;
23402;SDS011;11874;48.228;11.684;2023-09-12T09:07:18;12.73;;;7.78;;
23402;SDS011;11874;48.228;11.684;2023-09-12T09:09:49;14.73;;;8.73;;
23402;SDS011;11874;48.228;11.684;2023-09-12T09:12:20;12.80;;;7.53;;
23402;SDS011;11874;48.228;11.684;2023-09-12T09:14:48;13.95;;;8.82;;
23402;SDS011;11874;48.228;11.684;2023-09-12T09:17:18;11.68;;;8.15;;
23402;SDS011;11874;48.228;11.684;2023-09-12T09:20:00;10.50;;;8.13;;
23402;SDS011;11874;48.228;11.684;2023-09-12T09:22:32;10.38;;;8.35;;
23402;SDS011;11874;48.228;11.684;2023-09-12T09:25:09;14.88;;;8.60;;
23402;SDS011;11874;48.228;11.684;2023-09-12T09:27:39;9.00;;;7.15;;
23402;SDS011;11874;48.228;11.684;2023-09-12T09:30:08;10.43;;;6.85;;
23402;SDS011;11874;48.228;11.684;2023-09-12T09:32:38;9.80;;;7.80;;
23402;SDS011;11874;48.228;11.684;2023-09-12T09:35:06;13.77;;;7.70;;
23402;SDS011;11874;48.228;11.684;2023-09-12T09:37:37;8.50;;;7.53;;
23402;SDS011;11874;48.228;11.684;2023-09-12T09:40:06;11.07;;;8.13;;
23402;SDS011;11874;48.228;11.684;2023-09-12T09:42:37;8.82;;;7.43;;
23402;SDS011;11874;48.228;11.684;2023-09-12T09:45:06;8.95;;;7.45;;
23402;SDS011;11874;48.228;11.684;2023-09-12T09:47:36;9.25;;;7.57;;
23402;SDS011;11874;48.228;11.684;2023-09-12T09:50:07;9.10;;;7.47;;
23402;SDS011;11874;48.228;11.684;2023-09-12T09:52:35;10.40;;;7.57;;
23402;SDS011;11874;48.228;11.684;2023-09-12T09:55:05;10.63;;;8.05;;
23402;SDS011;11874;48.228;11.684;2023-09-12T09:57:36;9.77;;;8.25;;
23402;SDS011;11874;48.228;11.684;2023-09-12T10:00:06;11.70;;;8.95;;
23402;SDS011;11874;48.228;11.684;2023-09-12T10:02:41;13.40;;;10.02;;
23402;SDS011;11874;48.228;11.684;2023-09-12T10:05:14;10.27;;;9.25;;
23402;SDS011;11874;48.228;11.684;2023-09-12T10:07:45;10.00;;;8.50;;
23402;SDS011;11874;48.228;11.684;2023-09-12T10:10:19;11.98;;;8.73;;
23402;SDS011;11874;48.228;11.684;2023-09-12T10:12:48;9.75;;;7.38;;
23402;SDS011;11874;48.228;11.684;2023-09-12T10:15:19;10.40;;;8.68;;
23402;SDS011;11874;48.228;11.684;2023-09-12T10:17:51;11.25;;;8.55;;
23402;SDS011;11874;48.228;11.684;2023-09-12T10:20:29;8.10;;;7.30;;
23402;SDS011;11874;48.228;11.684;2023-09-12T10:23:04;11.73;;;7.88;;
23402;SDS011;11874;48.228;11.684;2023-09-12T10:25:37;12.57;;;7.38;;
23402;SDS011;11874;48.228;11.684;2023-09-12T10:28:08;8.82;;;7.50;;
23402;SDS011;11874;48.228;11.684;2023-09-12T10:30:39;11.13;;;7.32;;
23402;SDS011;11874;48.228;11.684;2023-09-12T10:33:08;9.90;;;7.72;;
23402;SDS011;11874;48.228;11.684;2023-09-12T10:35:40;11.93;;;7.72;;
23402;SDS011;11874;48.228;11.684;2023-09-12T10:38:09;9.68;;;7.35;;
23402;SDS011;11874;48.228;11.684;2023-09-12T10:40:40;9.98;;;6.90;;
23402;SDS011;11874;48.228;11.684;2023-09-12T10:43:10;9.35;;;7.40;;
23402;SDS011;11874;48.228;11.684;2023-09-12T10:45:39;10.88;;;8.63;;
23402;SDS011;11874;48.228;11.684;2023-09-12T10:48:09;8.90;;;7.30;;
23402;SDS011;11874;48.228;11.684;2023-09-12T10:50:39;9.38;;;7.57;;
23402;SDS011;11874;48.228;11.684;2023-09-12T10:53:09;8.45;;;6.72;;
23402;SDS011;11874;48.228;11.684;2023-09-12T10:55:38;9.23;;;7.78;;
23402;SDS011;11874;48.228;11.684;2023-09-12T10:58:09;10.07;;;7.38;;
23402;SDS011;11874;48.228;11.684;2023-09-12T11:00:38;10.98;;;7.60;;
23402;SDS011;11874;48.228;11.684;2023-09-12T11:06:06;9.15;;;6.55;;
23402;SDS011;11874;48.228;11.684;2023-09-12T11:11:45;9.98;;;7.18;;
23402;SDS011;11874;48.228;11.684;2023-09-12T11:14:15;9.13;;;6.75;;
23402;SDS011;11874;48.228;11.684;2023-09-12T11:16:50;7.93;;;6.65;;
23402;SDS011;11874;48.228;11.684;2023-09-12T11:19:48;7.72;;;6.93;;
23402;SDS011;11874;48.228;11.684;2023-09-12T11:22:24;11.73;;;6.82;;
23402;SDS011;11874;48.228;11.684;2023-09-12T11:24:54;9.32;;;6.20;;
23402;SDS011;11874;48.228;11.684;2023-09-12T11:27:24;10.20;;;7.30;;
23402;SDS011;11874;48.228;11.684;2023-09-12T11:30:03;8.93;;;7.10;;
23402;SDS011;11874;48.228;11.684;2023-09-12T11:32:34;7.88;;;6.50;;
23402;SDS011;11874;48.228;11.684;2023-09-12T11:35:04;9.23;;;6.20;;
23402;SDS011;11874;48.228;11.684;2023-09-12T11:37:35;9.02;;;6.88;;
23402;SDS011;11874;48.228;11.684;2023-09-12T11:42:51;9.30;;;6.78;;
23402;SDS011;11874;48.228;11.684;2023-09-12T11:45:22;8.40;;;6.70;;
23402;SDS011;11874;48.228;11.684;2023-09-12T11:47:50;8.55;;;6.78;;
23402;SDS011;11874;48.228;11.684;2023-09-12T11:50:25;7.53;;;6.40;;
23402;SDS011;11874;48.228;11.684;2023-09-12T11:53:00;7.97;;;6.90;;
23402;SDS011;11874;48.228;11.684;2023-09-12T11:55:33;8.48;;;6.85;;
23402;SDS011;11874;48.228;11.684;2023-09-12T11:58:04;9.57;;;6.55;;
23402;SDS011;11874;48.228;11.684;2023-09-12T12:00:33;10.50;;;7.30;;
23402;SDS011;11874;48.228;11.684;2023-09-12T12:03:02;9.77;;;6.70;;
23402;SDS011;11874;48.228;11.684;2023-09-12T12:05:30;10.05;;;7.15;;
23402;SDS011;11874;48.228;11.684;2023-09-12T12:08:03;7.72;;;6.75;;
23402;SDS011;11874;48.228;11.684;2023-09-12T12:10:52;9.57;;;7.57;;
23402;SDS011;11874;48.228;11.684;2023-09-12T12:13:20;11.20;;;6.40;;
23402;SDS011;11874;48.228;11.684;2023-09-12T12:16:14;8.10;;;6.45;;
23402;SDS011;11874;48.228;11.684;2023-09-12T12:18:42;9.13;;;7.55;;
23402;SDS011;11874;48.228;11.684;2023-09-12T12:21:11;7.80;;;6.90;;
23402;SDS011;11874;48.228;11.684;2023-09-12T12:23:40;9.77;;;6.75;;
23402;SDS011;11874;48.228;11.684;2023-09-12T12:26:09;8.43;;;6.45;;
23402;SDS011;11874;48.228;11.684;2023-09-12T12:28:38;11.10;;;7.15;;
23402;SDS011;11874;48.228;11.684;2023-09-12T12:31:08;10.00;;;7.00;;
23402;SDS011;11874;48.228;11.684;2023-09-12T12:33:37;8.98;;;6.93;;
23402;SDS011;11874;48.228;11.684;2023-09-12T12:36:25;12.32;;;7.05;;
23402;SDS011;11874;48.228;11.684;2023-09-12T12:38:55;8.70;;;7.13;;
23402;SDS011;11874;48.228;11.684;2023-09-12T12:41:24;9.40;;;6.65;;
23402;SDS011;11874;48.228;11.684;2023-09-12T12:43:58;10.48;;;6.95;;
23402;SDS011;11874;48.228;11.684;2023-09-12T12:46:30;8.77;;;6.32;;
23402;SDS011;11874;48.228;11.684;2023-09-12T12:48:58;7.50;;;6.53;;
23402;SDS011;11874;48.228;11.684;2023-09-12T12:51:26;7.15;;;6.45;;
23402;SDS011;11874;48.228;11.684;2023-09-12T12:54:04;9.50;;;7.07;;
23402;SDS011;11874;48.228;11.684;2023-09-12T12:56:33;9.40;;;6.97;;
23402;SDS011;11874;48.228;11.684;2023-09-12T12:59:04;7.38;;;6.47;;
23402;SDS011;11874;48.228;11.684;2023-09-12T13:01:35;8.10;;;6.75;;
23402;SDS011;11874;48.228;11.684;2023-09-12T13:04:04;9.45;;;7.20;;
23402;SDS011;11874;48.228;11.684;2023-09-12T13:06:34;8.93;;;7.15;;
23402;SDS011;11874;48.228;11.684;2023-09-12T13:09:06;8.15;;;6.38;;
23402;SDS011;11874;48.228;11.684;2023-09-12T13:11:35;9.73;;;6.30;;
23402;SDS011;11874;48.228;11.684;2023-09-12T13:14:04;7.80;;;6.75;;
23402;SDS011;11874;48.228;11.684;2023-09-12T13:16:36;7.70;;;6.70;;
23402;SDS011;11874;48.228;11.684;2023-09-12T13:19:06;8.48;;;6.18;;
23402;SDS011;11874;48.228;11.684;2023-09-12T13:21:34;7.68;;;6.72;;
23402;SDS011;11874;48.228;11.684;2023-09-12T13:24:03;9.02;;;6.75;;
23402;SDS011;11874;48.228;11.684;2023-09-12T13:26:33;7.82;;;6.65;;
23402;SDS011;11874;48.228;11.684;2023-09-12T13:29:01;7.78;;;6.97;;
23402;SDS011;11874;48.228;11.684;2023-09-12T13:31:30;8.23;;;6.55;;
23402;SDS011;11874;48.228;11.684;2023-09-12T13:33:59;9.75;;;6.63;;
23402;SDS011;11874;48.228;11.684;2023-09-12T13:36:29;9.98;;;7.22;;
23402;SDS011;11874;48.228;11.684;2023-09-12T13:38:57;7.32;;;6.50;;
23402;SDS011;11874;48.228;11.684;2023-09-12T13:41:25;12.20;;;8.15;;
23402;SDS011;11874;48.228;11.684;2023-09-12T13:43:55;10.25;;;6.75;;
23402;SDS011;11874;48.228;11.684;2023-09-12T13:46:23;7.22;;;6.53;;
23402;SDS011;11874;48.228;11.684;2023-09-12T13:48:51;7.22;;;6.53;;
23402;SDS011;11874;48.228;11.684;2023-09-12T13:51:19;8.48;;;6.45;;
23402;SDS011;11874;48.228;11.684;2023-09-12T13:53:48;9.93;;;6.53;;
23402;SDS011;11874;48.228;11.684;2023-09-12T13:56:16;7.20;;;6.38;;
23402;SDS011;11874;48.228;11.684;2023-09-12T13:58:44;7.13;;;6.43;;
23402;SDS011;11874;48.228;11.684;2023-09-12T14:01:16;7.32;;;6.18;;
23402;SDS011;11874;48.228;11.684;2023-09-12T14:03:59;9.73;;;6.55;;
23402;SDS011;11874;48.228;11.684;2023-09-12T14:06:28;8.27;;;6.55;;
23402;SDS011;11874;48.228;11.684;2023-09-12T14:08:57;8.32;;;6.70;;
23402;SDS011;11874;48.228;11.684;2023-09-12T14:11:25;7.28;;;6.47;;
23402;SDS011;11874;48.228;11.684;2023-09-12T14:14:01;9.50;;;6.13;;
23402;SDS011;11874;48.228;11.684;2023-09-12T14:16:43;7.13;;;6.10;;
23402;SDS011;11874;48.228;11.684;2023-09-12T14:19:14;9.60;;;6.30;;
23402;SDS011;11874;48.228;11.684;2023-09-12T14:21:43;7.90;;;6.00;;
23402;SDS011;11874;48.228;11.684;2023-09-12T14:24:13;6.70;;;6.07;;
23402;SDS011;11874;48.228;11.684;2023-09-12T14:26:43;7.50;;;6.40;;
23402;SDS011;11874;48.228;11.684;2023-09-12T14:29:11;9.50;;;6.25;;
23402;SDS011;11874;48.228;11.684;2023-09-12T14:31:40;8.13;;;6.60;;
23402;SDS011;11874;48.228;11.684;2023-09-12T14:34:19;8.35;;;6.57;;
23402;SDS011;11874;48.228;11.684;2023-09-12T14:36:47;8.52;;;7.00;;
23402;SDS011;11874;48.228;11.684;2023-09-12T14:39:17;8.60;;;6.65;;
23402;SDS011;11874;48.228;11.684;2023-09-12T14:41:45;6.82;;;6.22;;
23402;SDS011;11874;48.228;11.684;2023-09-12T14:44:18;8.07;;;7.28;;
23402;SDS011;11874;48.228;11.684;2023-09-12T14:46:46;7.65;;;5.97;;
23402;SDS011;11874;48.228;11.684;2023-09-12T14:49:14;9.10;;;6.18;;
23402;SDS011;11874;48.228;11.684;2023-09-12T14:51:44;6.90;;;6.20;;
23402;SDS011;11874;48.228;11.684;2023-09-12T14:54:12;8.70;;;6.40;;
23402;SDS011;11874;48.228;11.684;2023-09-12T14:56:40;23.60;;;20.95;;
23402;SDS011;11874;48.228;11.684;2023-09-12T14:59:08;19.00;;;16.35;;
23402;SDS011;11874;48.228;11.684;2023-09-12T15:01:37;8.95;;;8.02;;
23402;SDS011;11874;48.228;11.684;2023-09-12T15:04:05;6.65;;;5.88;;
23402;SDS011;11874;48.228;11.684;2023-09-12T15:06:34;7.93;;;6.90;;
23402;SDS011;11874;48.228;11.684;2023-09-12T15:09:04;8.57;;;6.85;;
23402;SDS011;11874;48.228;11.684;2023-09-12T15:11:33;8.30;;;6.43;;
23402;SDS011;11874;48.228;11.684;2023-09-12T15:14:01;6.90;;;5.85;;
23402;SDS011;11874;48.228;11.684;2023-09-12T15:16:30;7.22;;;6.53;;
23402;SDS011;11874;48.228;11.684;2023-09-12T15:19:01;6.80;;;6.10;;
23402;SDS011;11874;48.228;11.684;2023-09-12T15:21:30;8.38;;;6.32;;
23402;SDS011;11874;48.228;11.684;2023-09-12T15:23:58;7.30;;;6.47;;
23402;SDS011;11874;48.228;11.684;2023-09-12T15:26:28;7.68;;;5.72;;
23402;SDS011;11874;48.228;11.684;2023-09-12T15:28:56;6.35;;;5.75;;
23402;SDS011;11874;48.228;11.684;2023-09-12T15:31:28;6.20;;;5.55;;
23402;SDS011;11874;48.228;11.684;2023-09-12T15:33:56;7.10;;;5.80;;
23402;SDS011;11874;48.228;11.684;2023-09-12T15:36:23;6.70;;;6.00;;
23402;SDS011;11874;48.228;11.684;2023-09-12T18:41:15;12.23;;;9.15;;
23402;SDS011;11874;48.228;11.684;2023-09-12T18:43:44;17.42;;;11.50;;
23402;SDS011;11874;48.228;11.684;2023-09-12T18:46:12;13.80;;;10.70;;
23402;SDS011;11874;48.228;11.684;2023-09-12T18:48:41;9.82;;;8.30;;
23402;SDS011;11874;48.228;11.684;2023-09-12T18:51:09;11.85;;;7.32;;
23402;SDS011;11874;48.228;11.684;2023-09-12T18:53:37;10.38;;;7.70;;
